Terminal Aerodrome Forecast
Issued by NWS Hastings, NE

Home | Current Version | Previous Version | Text Only | Print | Product List | Glossary On
Versions: 1 2 3 4 5 6 7 8 9 10 11 12 13 14 15 16 17 18 19 20
000
FTUS45 KGID 220531
TAFEAR
TAF
KEAR 220531Z 2206/2306 19005KT P6SM FEW050 BKN120
     FM221400 17010KT P6SM VCSH OVC050
     FM221700 14012KT P6SM VCSH OVC025
     FM230000 12012KT P6SM -DZ BKN012 OVC025
      AMD LTD TO CLD VIS AND WIND=

USA.gov is the U.S. government's official web portal to all federal, state and local government web resources and services.